Time;durP1;ratioP1;P1;durP2;ratioP2;P2;SDS_P1;SDS_P2;PMS_P1;PMS_P2;Temp;Humidity;BMP_temperature;BMP_pressure;BME280_temperature;BME280_humidity;BME280_pressure;Samples;Min_cycle;Max_cycle;Signal;HPM_P1;HPM_P2
2023/05/03 00:00:27;;;;;;;19.83;12.05;;;14.00;99.90;;;;;;4915732;29;20051;-79
2023/05/03 00:08:06;;;;;;;21.05;11.20;;;13.70;99.90;;;;;;4987711;23;20059;-76
2023/05/03 00:10:31;;;;;;;23.48;11.48;;;13.70;99.90;;;;;;4915024;29;20032;-75
2023/05/03 00:12:57;;;;;;;18.02;11.18;;;13.70;99.90;;;;;;4915855;29;20498;-76
2023/05/03 00:15:23;;;;;;;22.33;10.77;;;13.70;99.90;;;;;;4915605;29;20047;-73
2023/05/03 00:17:49;;;;;;;18.85;11.00;;;13.70;99.90;;;;;;4898075;29;20117;-76
2023/05/03 00:20:16;;;;;;;20.77;11.60;;;13.70;99.90;;;;;;4913050;29;20064;-77
2023/05/03 00:22:42;;;;;;;18.17;10.77;;;13.80;99.90;;;;;;4897990;29;20088;-75
2023/05/03 00:25:08;;;;;;;20.45;12.88;;;13.70;99.90;;;;;;4915233;29;20032;-75
2023/05/03 00:27:35;;;;;;;22.23;12.05;;;13.80;99.90;;;;;;4915115;29;20500;-77
2023/05/03 00:30:01;;;;;;;19.73;11.85;;;13.80;99.90;;;;;;4893476;29;20032;-75
2023/05/03 00:32:27;;;;;;;17.25;11.57;;;13.80;99.90;;;;;;4911004;29;20036;-77
2023/05/03 00:34:54;;;;;;;17.83;10.70;;;13.80;99.90;;;;;;4897984;29;20031;-74
2023/05/03 00:37:20;;;;;;;21.00;13.02;;;13.80;99.90;;;;;;4915389;29;20036;-75
2023/05/03 00:39:46;;;;;;;20.15;13.82;;;13.90;99.90;;;;;;4915462;29;20060;-80
2023/05/03 00:42:11;;;;;;;21.33;13.52;;;13.90;99.90;;;;;;4897645;29;20074;-75
2023/05/03 00:44:37;;;;;;;22.60;14.02;;;13.80;99.90;;;;;;4918303;29;20035;-74
2023/05/03 00:47:03;;;;;;;19.35;12.77;;;13.70;99.90;;;;;;4919309;29;20024;-74
2023/05/03 00:49:29;;;;;;;19.73;13.52;;;13.80;99.90;;;;;;4918942;29;20364;-80
2023/05/03 00:51:58;;;;;;;22.67;14.02;;;13.70;99.90;;;;;;4900412;29;20083;-77
2023/05/03 00:54:26;;;;;;;22.55;13.02;;;13.70;99.90;;;;;;4901505;29;20036;-74
2023/05/03 00:56:52;;;;;;;24.67;15.30;;;13.80;99.90;;;;;;4919093;29;20020;-78
2023/05/03 00:59:19;;;;;;;21.95;14.82;;;13.80;99.90;;;;;;4901785;29;20480;-76
2023/05/03 01:01:51;;;;;;;18.67;13.30;;;13.70;99.90;;;;;;4917376;29;20038;-74
2023/05/03 01:04:18;;;;;;;21.35;14.50;;;13.70;99.90;;;;;;4915763;29;20111;-75
2023/05/03 01:07:00;;;;;;;20.73;13.35;;;13.70;99.90;;;;;;4918265;29;20056;-77
2023/05/03 01:09:52;;;;;;;19.33;12.82;;;13.70;99.90;;;;;;4901759;29;20032;-74
2023/05/03 01:12:43;;;;;;;19.85;12.85;;;13.70;99.90;;;;;;4906267;29;20156;-76
2023/05/03 01:15:33;;;;;;;18.50;13.25;;;13.60;99.90;;;;;;4918925;29;20419;-76
2023/05/03 01:18:07;;;;;;;20.25;13.95;;;13.60;99.90;;;;;;4918624;29;20480;-77
2023/05/03 01:20:36;;;;;;;19.90;14.23;;;13.60;99.90;;;;;;4900945;29;20042;-76
2023/05/03 01:23:13;;;;;;;20.10;13.27;;;13.60;99.90;;;;;;4918450;29;20021;-78
2023/05/03 01:25:39;;;;;;;21.27;13.43;;;13.60;99.90;;;;;;4906876;29;20451;-78
2023/05/03 01:28:05;;;;;;;23.05;14.27;;;13.50;99.90;;;;;;4900606;29;20058;-76
2023/05/03 01:30:32;;;;;;;17.90;12.88;;;13.50;99.90;;;;;;4918151;29;20038;-75
2023/05/03 01:33:06;;;;;;;20.33;13.98;;;13.50;99.90;;;;;;4918605;29;20066;-76
2023/05/03 01:35:56;;;;;;;20.77;13.68;;;13.50;99.90;;;;;;4916648;29;20039;-75
2023/05/03 01:38:22;;;;;;;21.13;13.75;;;13.40;99.90;;;;;;4917833;29;20039;-80
2023/05/03 01:40:54;;;;;;;21.13;13.30;;;13.30;99.90;;;;;;4901201;29;20854;-74
2023/05/03 01:43:22;;;;;;;18.97;13.23;;;13.20;99.90;;;;;;4917944;29;20547;-77
2023/05/03 01:45:48;;;;;;;21.63;13.70;;;13.10;99.90;;;;;;4901006;29;20392;-73
2023/05/03 01:48:16;;;;;;;23.52;15.65;;;13.00;99.90;;;;;;4918103;29;20039;-80
2023/05/03 01:50:43;;;;;;;25.67;14.77;;;13.00;99.90;;;;;;4890496;29;20033;-73
2023/05/03 01:53:08;;;;;;;21.35;14.68;;;13.00;99.90;;;;;;4915458;29;20020;-75
2023/05/03 01:55:35;;;;;;;20.73;14.15;;;12.90;99.90;;;;;;4898448;29;20060;-74
2023/05/03 01:58:01;;;;;;;19.48;13.70;;;12.80;99.90;;;;;;4900998;29;20028;-78
2023/05/03 02:00:26;;;;;;;22.90;14.63;;;12.90;99.90;;;;;;4916115;29;20051;-79
2023/05/03 02:02:52;;;;;;;23.50;15.05;;;12.90;99.90;;;;;;4917653;29;20064;-74
2023/05/03 02:05:18;;;;;;;23.20;14.98;;;13.00;99.90;;;;;;4900516;29;20044;-78
2023/05/03 02:07:44;;;;;;;20.95;15.18;;;12.80;99.90;;;;;;4915789;29;20063;-79
2023/05/03 02:10:13;;;;;;;24.48;14.95;;;12.80;99.90;;;;;;4916415;29;20028;-80
2023/05/03 02:12:42;;;;;;;26.33;17.83;;;12.80;99.90;;;;;;4917048;29;20777;-76
2023/05/03 02:15:09;;;;;;;21.85;15.63;;;12.80;99.90;;;;;;4917249;29;20067;-75
2023/05/03 02:17:35;;;;;;;28.02;15.50;;;12.70;99.90;;;;;;4915525;29;20094;-78
2023/05/03 02:20:00;;;;;;;21.27;15.32;;;12.80;99.90;;;;;;4917554;29;20490;-75
2023/05/03 02:22:26;;;;;;;21.85;14.50;;;12.80;99.90;;;;;;4917085;29;20024;-75
2023/05/03 02:24:53;;;;;;;21.00;14.57;;;12.70;99.90;;;;;;4917445;29;20107;-77
2023/05/03 02:27:19;;;;;;;22.23;13.48;;;12.70;99.90;;;;;;4898406;29;20112;-74
2023/05/03 02:29:45;;;;;;;24.38;14.48;;;12.60;99.90;;;;;;4917100;29;20031;-78
2023/05/03 02:32:13;;;;;;;21.15;15.15;;;12.50;99.90;;;;;;4900314;29;20184;-73
2023/05/03 02:34:40;;;;;;;23.40;15.88;;;12.60;99.90;;;;;;4899985;29;20065;-78
2023/05/03 02:37:08;;;;;;;22.27;14.82;;;12.60;99.90;;;;;;4900143;29;20035;-80
2023/05/03 02:39:34;;;;;;;20.92;14.23;;;12.60;99.90;;;;;;4898507;29;20535;-79
2023/05/03 02:41:59;;;;;;;21.70;15.05;;;12.60;99.90;;;;;;4900045;29;20369;-79
2023/05/03 02:44:26;;;;;;;23.60;15.10;;;12.60;99.90;;;;;;4899586;29;20079;-80
2023/05/03 02:46:53;;;;;;;22.08;14.93;;;12.70;99.90;;;;;;4899625;29;20040;-79
2023/05/03 02:49:19;;;;;;;20.30;15.13;;;12.70;99.90;;;;;;4898142;29;20036;-75
2023/05/03 02:51:45;;;;;;;22.13;16.10;;;12.70;99.90;;;;;;4899601;29;20077;-76
2023/05/03 02:54:11;;;;;;;20.60;14.43;;;12.70;99.90;;;;;;4899938;29;20400;-76
2023/05/03 02:56:37;;;;;;;22.17;15.30;;;12.70;99.90;;;;;;4899619;29;20052;-77
2023/05/03 02:59:03;;;;;;;24.42;18.35;;;12.80;99.90;;;;;;4915304;29;20059;-74
2023/05/03 03:01:32;;;;;;;24.13;16.88;;;12.80;99.90;;;;;;4898075;29;20028;-77
2023/05/03 03:03:59;;;;;;;29.85;22.77;;;12.80;99.90;;;;;;4899541;29;20028;-78
2023/05/03 03:06:25;;;;;;;33.92;25.83;;;12.70;99.90;;;;;;4898723;29;20123;-75
2023/05/03 03:08:51;;;;;;;29.42;22.33;;;12.70;99.90;;;;;;4898919;29;20488;-77
2023/05/03 03:11:17;;;;;;;24.80;16.70;;;12.70;99.90;;;;;;4898563;29;20039;-79
2023/05/03 03:13:43;;;;;;;23.50;15.95;;;12.80;99.90;;;;;;4899543;29;20028;-74
2023/05/03 03:16:09;;;;;;;22.38;16.60;;;13.00;99.90;;;;;;4915983;29;20570;-80
2023/05/03 03:18:35;;;;;;;25.27;16.73;;;13.00;99.90;;;;;;4899075;29;20024;-74
2023/05/03 03:21:02;;;;;;;26.88;18.85;;;13.10;99.90;;;;;;4898278;29;20029;-74
2023/05/03 03:23:29;;;;;;;23.52;16.77;;;13.20;99.90;;;;;;4898975;29;20030;-74
2023/05/03 03:25:57;;;;;;;24.92;18.55;;;13.10;99.90;;;;;;4899192;29;20028;-73
2023/05/03 03:28:24;;;;;;;24.23;15.80;;;13.20;99.90;;;;;;4913597;29;20036;-76
2023/05/03 03:30:50;;;;;;;22.80;17.27;;;13.30;99.90;;;;;;4898765;29;20123;-74
2023/05/03 03:33:22;;;;;;;26.10;18.25;;;13.20;99.90;;;;;;4899084;29;20036;-73
2023/05/03 03:35:48;;;;;;;23.60;16.17;;;13.30;99.90;;;;;;4899315;29;20032;-74
2023/05/03 03:38:16;;;;;;;23.05;15.85;;;13.30;99.90;;;;;;4897299;29;20024;-74
2023/05/03 03:40:49;;;;;;;24.05;16.65;;;13.40;99.90;;;;;;4915743;29;20119;-74
2023/05/03 03:43:15;;;;;;;23.67;16.35;;;13.40;99.90;;;;;;4899321;29;20036;-75
2023/05/03 03:45:42;;;;;;;21.77;15.38;;;13.40;99.90;;;;;;4898722;29;20035;-75
2023/05/03 03:48:10;;;;;;;23.33;17.10;;;13.40;99.90;;;;;;4897632;29;20040;-75
2023/05/03 03:50:36;;;;;;;28.17;18.30;;;13.50;99.90;;;;;;4915883;29;20369;-73
2023/05/03 03:53:02;;;;;;;22.98;16.23;;;13.50;99.90;;;;;;4899134;29;20130;-79
2023/05/03 03:55:28;;;;;;;24.73;18.02;;;13.50;99.90;;;;;;4898510;29;20024;-76
2023/05/03 03:57:56;;;;;;;23.08;16.92;;;13.60;99.90;;;;;;4915226;29;20023;-76
2023/05/03 04:00:24;;;;;;;34.65;23.45;;;13.60;99.90;;;;;;4907012;29;20028;-80
2023/05/03 04:02:58;;;;;;;24.30;15.88;;;13.60;99.90;;;;;;4896750;29;20024;-78
2023/05/03 04:05:24;;;;;;;28.75;15.02;;;13.60;99.90;;;;;;4915522;29;20043;-74
2023/05/03 04:07:50;;;;;;;25.17;15.98;;;13.60;99.90;;;;;;4887386;29;20091;-76
2023/05/03 04:10:18;;;;;;;24.15;15.85;;;13.60;99.90;;;;;;4914104;29;20484;-73
2023/05/03 04:12:44;;;;;;;19.90;14.15;;;13.50;99.90;;;;;;4898844;29;20028;-73
2023/05/03 04:15:12;;;;;;;28.08;15.52;;;13.50;99.90;;;;;;4896865;29;20024;-84
2023/05/03 04:17:39;;;;;;;27.67;16.10;;;13.40;99.90;;;;;;4901423;29;20031;-75
2023/05/03 04:20:12;;;;;;;27.30;16.08;;;13.40;99.90;;;;;;4916248;29;20024;-75
2023/05/03 04:22:40;;;;;;;26.60;16.13;;;13.30;99.90;;;;;;4912777;29;20032;-75
2023/05/03 04:25:12;;;;;;;25.08;16.98;;;13.30;99.90;;;;;;4905490;29;20031;-84
2023/05/03 04:27:40;;;;;;;24.70;16.10;;;13.40;99.90;;;;;;4897183;29;20468;-78
2023/05/03 04:30:06;;;;;;;25.55;16.67;;;13.60;99.90;;;;;;4902551;29;20063;-83
2023/05/03 04:32:36;;;;;;;27.33;15.48;;;13.60;99.90;;;;;;4890695;29;20028;-79
2023/05/03 04:35:09;;;;;;;25.88;15.35;;;13.70;99.90;;;;;;4902516;29;20392;-82
2023/05/03 04:37:38;;;;;;;27.15;16.40;;;13.80;99.90;;;;;;4902166;29;20052;-80
2023/05/03 04:40:08;;;;;;;26.40;15.38;;;13.90;99.90;;;;;;4902525;29;20031;-75
2023/05/03 04:42:36;;;;;;;23.90;15.60;;;14.00;99.90;;;;;;4900753;29;20036;-75
2023/05/03 04:45:02;;;;;;;23.15;14.93;;;14.20;99.90;;;;;;4919005;29;20051;-73
2023/05/03 04:47:29;;;;;;;27.83;18.23;;;14.20;99.90;;;;;;4896750;29;20047;-80
2023/05/03 04:49:55;;;;;;;22.25;16.40;;;14.30;99.90;;;;;;4917516;29;20035;-75
2023/05/03 04:52:21;;;;;;;21.63;15.73;;;14.40;99.90;;;;;;4901909;29;20028;-81
2023/05/03 04:54:47;;;;;;;24.80;15.88;;;14.50;99.90;;;;;;4901672;29;20082;-83
2023/05/03 04:57:13;;;;;;;23.05;16.40;;;14.60;99.90;;;;;;4902029;29;20110;-78
2023/05/03 04:59:39;;;;;;;23.25;16.13;;;14.70;99.90;;;;;;4918274;29;20111;-74
2023/05/03 05:02:07;;;;;;;22.20;15.07;;;14.80;99.90;;;;;;4889139;29;20380;-75
2023/05/03 05:04:33;;;;;;;21.95;15.82;;;14.80;99.90;;;;;;4896744;29;20070;-79
2023/05/03 05:07:00;;;;;;;22.88;15.65;;;14.90;99.90;;;;;;4912470;29;20048;-75
2023/05/03 05:09:31;;;;;;;22.85;15.80;;;14.90;99.90;;;;;;4897517;29;20656;-74
2023/05/03 05:12:00;;;;;;;22.35;15.77;;;14.80;99.90;;;;;;4911750;29;20032;-73
2023/05/03 05:14:33;;;;;;;27.10;16.77;;;14.90;99.90;;;;;;4912953;29;20079;-77
2023/05/03 05:16:59;;;;;;;24.67;17.10;;;15.00;99.90;;;;;;4894030;29;20032;-81
2023/05/03 05:19:26;;;;;;;24.98;16.17;;;15.00;99.90;;;;;;4899046;29;20028;-74
2023/05/03 05:21:52;;;;;;;29.40;16.33;;;15.10;99.90;;;;;;4898374;29;20028;-75
2023/05/03 05:24:19;;;;;;;23.70;16.85;;;15.20;99.90;;;;;;4883377;29;20084;-74
2023/05/03 05:26:45;;;;;;;24.35;16.00;;;15.40;99.90;;;;;;4898662;29;20447;-78
2023/05/03 05:29:13;;;;;;;28.08;17.20;;;15.50;99.90;;;;;;4916571;29;20024;-74
2023/05/03 05:31:39;;;;;;;23.33;15.80;;;15.60;99.90;;;;;;4900936;29;20036;-74
2023/05/03 05:34:07;;;;;;;23.55;17.42;;;15.70;99.90;;;;;;4898096;29;20059;-74
2023/05/03 05:36:34;;;;;;;24.52;16.92;;;15.70;99.90;;;;;;4895921;29;20092;-77
2023/05/03 05:39:01;;;;;;;27.20;17.35;;;15.60;99.90;;;;;;4900856;29;20028;-80
2023/05/03 05:41:28;;;;;;;26.13;15.40;;;15.70;99.90;;;;;;4900716;29;20036;-81
2023/05/03 05:43:55;;;;;;;25.30;17.40;;;15.70;99.90;;;;;;4917463;29;20028;-74
2023/05/03 05:46:21;;;;;;;21.42;16.38;;;15.80;99.90;;;;;;4900890;29;20119;-73
2023/05/03 05:48:50;;;;;;;22.73;14.15;;;15.80;99.90;;;;;;4900673;29;20028;-74
2023/05/03 05:51:17;;;;;;;21.15;15.35;;;15.90;99.90;;;;;;4900967;29;20475;-74
2023/05/03 05:53:43;;;;;;;22.85;16.85;;;16.10;99.90;;;;;;4900172;29;20138;-74
2023/05/03 05:56:10;;;;;;;25.05;17.05;;;16.10;99.90;;;;;;4900576;29;20028;-79
2023/05/03 05:58:36;;;;;;;24.92;16.55;;;16.20;99.90;;;;;;4900611;29;20114;-77
2023/05/03 06:01:02;;;;;;;24.27;17.15;;;16.20;99.90;;;;;;4897888;29;20086;-76
2023/05/03 06:03:31;;;;;;;25.52;16.75;;;16.10;99.90;;;;;;4912899;29;20024;-74
2023/05/03 06:06:00;;;;;;;25.30;16.00;;;16.00;99.90;;;;;;4888782;29;20058;-73
2023/05/03 06:08:26;;;;;;;22.55;15.88;;;15.90;99.90;;;;;;4872058;29;20058;-74
2023/05/03 06:10:52;;;;;;;26.55;17.27;;;15.90;99.90;;;;;;4899682;29;20111;-74
2023/05/03 06:13:20;;;;;;;24.05;17.15;;;15.90;99.90;;;;;;4897811;29;20028;-74
2023/05/03 06:15:47;;;;;;;25.23;17.23;;;16.10;99.90;;;;;;4898612;29;20035;-75
2023/05/03 06:18:13;;;;;;;26.38;18.52;;;16.10;99.90;;;;;;4896222;29;20029;-74
2023/05/03 06:20:39;;;;;;;25.63;18.48;;;16.00;99.90;;;;;;4887006;29;20055;-78
2023/05/03 06:23:05;;;;;;;29.73;17.55;;;16.10;99.90;;;;;;4899227;29;20036;-74
2023/05/03 06:25:31;;;;;;;24.77;16.88;;;16.30;99.90;;;;;;4899994;29;20140;-79
2023/05/03 06:27:57;;;;;;;30.65;18.67;;;16.40;99.90;;;;;;4916866;29;20544;-75
2023/05/03 06:30:28;;;;;;;28.65;16.10;;;16.20;99.90;;;;;;4899415;29;20498;-76
2023/05/03 06:32:57;;;;;;;30.55;18.45;;;16.30;99.90;;;;;;4915834;29;20060;-77
2023/05/03 06:35:23;;;;;;;26.98;18.02;;;16.50;99.90;;;;;;4905641;29;20055;-77
2023/05/03 06:37:49;;;;;;;22.00;15.02;;;16.70;99.90;;;;;;4917001;29;20098;-73
2023/05/03 06:40:15;;;;;;;25.42;17.35;;;17.00;99.90;;;;;;4915977;29;20067;-79
2023/05/03 06:42:41;;;;;;;37.92;17.23;;;17.00;99.90;;;;;;4917100;29;20139;-74
2023/05/03 06:45:11;;;;;;;26.95;16.52;;;17.20;99.90;;;;;;4899780;29;20159;-79
2023/05/03 06:47:38;;;;;;;26.45;15.15;;;17.40;99.90;;;;;;4902372;29;20046;-74
2023/05/03 06:50:05;;;;;;;21.60;13.82;;;17.30;99.90;;;;;;4899092;29;20032;-75
2023/05/03 06:52:31;;;;;;;22.17;15.05;;;17.30;99.90;;;;;;4916090;29;20377;-80
2023/05/03 06:54:56;;;;;;;21.60;14.90;;;17.10;99.90;;;;;;4899019;29;20038;-76
2023/05/03 06:57:22;;;;;;;22.70;15.10;;;17.20;99.90;;;;;;4916710;29;20127;-74
2023/05/03 06:59:48;;;;;;;20.55;14.57;;;17.30;99.90;;;;;;4916385;29;20056;-80
2023/05/03 07:02:14;;;;;;;23.63;15.70;;;16.90;99.90;;;;;;4916344;29;20016;-77
2023/05/03 07:04:40;;;;;;;26.40;14.82;;;16.60;99.90;;;;;;4916677;29;20459;-77
2023/05/03 07:07:06;;;;;;;28.15;16.58;;;16.60;99.90;;;;;;4915639;29;20465;-75
2023/05/03 07:09:32;;;;;;;23.98;15.20;;;16.60;99.90;;;;;;4916420;29;20115;-75
2023/05/03 07:11:58;;;;;;;35.38;16.10;;;16.50;99.90;;;;;;4916291;29;20107;-79
2023/05/03 07:14:26;;;;;;;25.80;17.00;;;16.50;99.90;;;;;;4916562;29;20024;-79
2023/05/03 07:16:51;;;;;;;28.60;16.35;;;16.70;99.90;;;;;;4916228;29;20031;-80
2023/05/03 07:19:17;;;;;;;22.80;15.98;;;16.80;99.90;;;;;;4916505;29;20087;-73
2023/05/03 07:21:43;;;;;;;22.00;15.57;;;17.10;99.90;;;;;;4916215;29;20024;-77
2023/05/03 07:24:11;;;;;;;23.10;15.43;;;17.10;99.90;;;;;;4916410;29;20066;-79
2023/05/03 07:26:37;;;;;;;26.17;14.15;;;17.20;99.90;;;;;;4915483;29;20477;-79
2023/05/03 07:29:03;;;;;;;21.25;13.63;;;17.30;99.90;;;;;;4916233;29;20043;-74
2023/05/03 07:31:29;;;;;;;22.95;14.68;;;17.60;99.90;;;;;;4916278;29;20025;-75
2023/05/03 07:33:55;;;;;;;16.75;10.23;;;17.50;99.90;;;;;;4916058;29;20455;-75
2023/05/03 07:36:21;;;;;;;17.02;9.98;;;17.60;99.90;;;;;;4916148;29;20028;-75
2023/05/03 07:38:47;;;;;;;20.92;9.00;;;17.40;99.90;;;;;;4915500;29;20083;-74
2023/05/03 07:41:31;;;;;;;11.60;8.07;;;17.50;99.90;;;;;;4916279;29;20414;-79
2023/05/03 07:43:57;;;;;;;8.60;5.50;;;17.70;99.90;;;;;;4916275;29;20032;-80
2023/05/03 07:46:23;;;;;;;16.35;6.57;;;17.50;99.90;;;;;;4916710;29;20027;-73
2023/05/03 07:48:48;;;;;;;13.93;6.40;;;17.70;99.90;;;;;;4916531;29;20035;-74
2023/05/03 07:51:14;;;;;;;9.75;5.72;;;17.40;99.90;;;;;;4916184;29;20103;-73
2023/05/03 07:53:40;;;;;;;9.30;5.82;;;17.50;99.90;;;;;;4916442;29;20440;-74
2023/05/03 07:56:06;;;;;;;19.23;6.57;;;17.40;99.90;;;;;;4915364;29;20017;-75
2023/05/03 07:58:32;;;;;;;32.28;7.53;;;17.30;99.90;;;;;;4916351;29;20388;-77
2023/05/03 08:00:58;;;;;;;11.07;4.95;;;17.40;99.90;;;;;;4915451;29;20040;-74
2023/05/03 08:03:24;;;;;;;9.73;4.78;;;17.40;99.90;;;;;;4915996;29;20040;-76
2023/05/03 08:05:50;;;;;;;7.97;4.63;;;17.40;99.90;;;;;;4915684;29;20036;-77
2023/05/03 08:08:17;;;;;;;11.95;5.22;;;17.30;99.90;;;;;;4915347;29;20048;-76
2023/05/03 08:10:43;;;;;;;9.32;4.60;;;17.30;99.90;;;;;;4915642;29;20604;-77
2023/05/03 08:13:09;;;;;;;7.95;3.97;;;17.20;99.90;;;;;;4898172;29;20123;-74
2023/05/03 08:15:34;;;;;;;6.97;4.25;;;17.20;99.90;;;;;;4915725;29;20023;-76
2023/05/03 08:18:00;;;;;;;11.20;4.70;;;17.20;99.90;;;;;;4915565;29;20465;-76
2023/05/03 08:20:26;;;;;;;8.55;3.92;;;16.80;99.90;;;;;;4915681;29;20396;-74
2023/05/03 08:22:58;;;;;;;10.10;4.70;;;17.00;99.90;;;;;;4915485;29;20051;-76
2023/05/03 08:25:24;;;;;;;20.58;5.03;;;17.10;99.90;;;;;;4915930;29;20036;-75
2023/05/03 08:27:51;;;;;;;9.07;4.57;;;17.20;99.90;;;;;;4915373;29;20037;-74
2023/05/03 08:30:18;;;;;;;8.45;4.70;;;17.40;99.90;;;;;;4915559;29;20055;-75
2023/05/03 08:32:45;;;;;;;13.30;4.53;;;17.60;99.90;;;;;;4898246;29;20040;-76
2023/05/03 08:35:12;;;;;;;13.80;4.13;;;17.60;99.90;;;;;;4915894;29;20376;-77
2023/05/03 08:37:42;;;;;;;7.43;3.58;;;17.80;99.60;;;;;;4915420;29;20078;-74
2023/05/03 08:40:13;;;;;;;5.20;3.22;;;17.90;98.40;;;;;;4915260;29;20029;-76
2023/05/03 08:42:51;;;;;;;7.32;2.85;;;18.10;97.60;;;;;;4915475;29;20428;-73
2023/05/03 08:45:17;;;;;;;6.45;2.63;;;18.10;93.80;;;;;;4915310;29;20036;-73
2023/05/03 08:47:44;;;;;;;6.55;2.20;;;18.30;94.00;;;;;;4915379;29;20046;-75
2023/05/03 08:50:11;;;;;;;5.05;2.70;;;18.00;91.50;;;;;;4915151;29;20043;-72
2023/05/03 08:52:40;;;;;;;4.03;2.55;;;18.30;93.20;;;;;;4915054;29;20107;-74
2023/05/03 08:55:06;;;;;;;6.05;2.25;;;18.40;90.70;;;;;;4915345;29;20044;-73
2023/05/03 08:57:34;;;;;;;10.05;2.55;;;18.60;90.50;;;;;;4915102;29;20020;-78
2023/05/03 09:00:00;;;;;;;22.77;3.67;;;18.60;90.10;;;;;;4915297;29;20036;-77
2023/05/03 09:02:29;;;;;;;4.85;2.60;;;18.30;87.90;;;;;;4915072;29;20031;-74
2023/05/03 09:04:55;;;;;;;6.03;2.17;;;18.40;88.50;;;;;;4918830;29;20042;-76
2023/05/03 09:07:21;;;;;;;4.38;2.20;;;18.80;89.90;;;;;;4918216;29;20052;-75
2023/05/03 09:09:47;;;;;;;8.13;2.83;;;19.00;87.70;;;;;;4918805;29;20032;-75
2023/05/03 09:12:35;;;;;;;4.85;2.55;;;19.50;89.50;;;;;;4932942;29;20123;-78
2023/05/03 09:15:02;;;;;;;4.55;2.15;;;19.80;86.80;;;;;;4911622;29;20388;-76
2023/05/03 09:17:28;;;;;;;4.82;2.47;;;19.80;86.60;;;;;;4918814;29;20422;-77
2023/05/03 09:19:56;;;;;;;5.82;2.67;;;19.80;84.90;;;;;;4918370;29;20032;-77
2023/05/03 09:22:25;;;;;;;9.40;2.55;;;19.90;84.50;;;;;;4918467;29;20024;-77
2023/05/03 09:24:58;;;;;;;5.28;2.50;;;19.80;85.00;;;;;;4918516;29;20035;-77
2023/05/03 09:27:25;;;;;;;8.05;2.83;;;20.10;86.80;;;;;;4918026;29;20044;-76
2023/05/03 09:29:52;;;;;;;5.70;2.05;;;19.90;83.80;;;;;;4918082;29;20028;-77
2023/05/03 09:32:18;;;;;;;4.50;2.47;;;19.50;83.20;;;;;;4918232;29;20502;-74
2023/05/03 09:34:44;;;;;;;9.85;2.70;;;19.40;85.20;;;;;;4918728;29;20428;-75
2023/05/03 09:37:13;;;;;;;7.40;2.72;;;19.50;83.00;;;;;;4917524;29;20051;-76
2023/05/03 09:39:44;;;;;;;8.57;2.60;;;19.70;85.00;;;;;;4918262;29;20103;-77
2023/05/03 09:42:15;;;;;;;3.78;2.20;;;19.90;84.50;;;;;;4917905;29;20027;-78
2023/05/03 09:44:47;;;;;;;5.78;3.05;;;20.00;87.00;;;;;;4918124;29;20047;-77
2023/05/03 09:47:14;;;;;;;9.63;3.85;;;20.30;85.40;;;;;;4917238;29;20040;-77
2023/05/03 09:49:40;;;;;;;6.30;2.55;;;20.30;84.60;;;;;;4918053;29;20373;-78
2023/05/03 09:52:07;;;;;;;5.30;2.65;;;20.20;83.20;;;;;;4917684;29;20028;-75
2023/05/03 09:54:34;;;;;;;6.45;2.40;;;20.30;86.40;;;;;;4917824;29;20075;-72
2023/05/03 09:57:03;;;;;;;6.07;2.58;;;20.20;85.00;;;;;;4917781;29;20032;-78
2023/05/03 09:59:29;;;;;;;6.20;2.92;;;19.70;83.30;;;;;;4917615;29;20476;-75
2023/05/03 10:01:57;;;;;;;4.90;2.92;;;19.30;84.20;;;;;;4917487;29;20456;-78
2023/05/03 10:04:26;;;;;;;10.50;3.20;;;19.20;85.70;;;;;;4917981;29;20024;-75
2023/05/03 10:07:03;;;;;;;12.18;2.72;;;19.20;84.80;;;;;;4905365;29;20052;-77
2023/05/03 10:09:47;;;;;;;6.60;2.17;;;19.10;86.70;;;;;;4917759;29;20480;-77
2023/05/03 10:12:16;;;;;;;5.88;2.88;;;19.00;87.30;;;;;;4928920;29;20373;-78
2023/05/03 10:14:45;;;;;;;7.28;2.95;;;18.50;87.80;;;;;;4915953;29;20040;-78
2023/05/03 10:17:16;;;;;;;7.18;2.83;;;18.20;88.40;;;;;;4900091;29;20027;-76
2023/05/03 10:20:05;;;;;;;10.52;3.30;;;18.20;88.90;;;;;;4907663;29;20400;-76
2023/05/03 10:22:32;;;;;;;5.95;3.28;;;18.00;89.30;;;;;;4916622;29;20159;-77
2023/05/03 10:25:01;;;;;;;7.20;2.83;;;17.70;90.10;;;;;;4915903;29;20119;-77
2023/05/03 10:27:45;;;;;;;7.10;2.83;;;17.70;90.70;;;;;;4899774;29;20044;-76
2023/05/03 10:30:28;;;;;;;6.90;3.63;;;17.70;90.80;;;;;;4916773;29;20420;-74
2023/05/03 10:32:54;;;;;;;9.02;3.28;;;17.60;90.70;;;;;;4917104;29;20036;-74
2023/05/03 10:35:20;;;;;;;6.22;2.95;;;17.70;90.60;;;;;;4903501;29;20484;-73
2023/05/03 10:37:49;;;;;;;6.35;3.00;;;17.40;90.40;;;;;;4905831;29;20043;-75
2023/05/03 10:40:16;;;;;;;4.85;2.63;;;17.50;91.40;;;;;;4916760;29;20032;-75
2023/05/03 10:43:09;;;;;;;7.80;3.22;;;17.40;91.00;;;;;;4916916;29;20111;-73
2023/05/03 10:45:42;;;;;;;6.82;3.30;;;17.40;91.10;;;;;;4874041;29;20196;-74
2023/05/03 10:48:11;;;;;;;6.05;3.40;;;17.50;91.50;;;;;;4896253;29;20404;-73
2023/05/03 10:50:41;;;;;;;7.63;2.75;;;17.60;90.50;;;;;;4893834;29;20024;-72
2023/05/03 10:53:08;;;;;;;10.15;2.78;;;17.60;91.70;;;;;;4912775;29;20095;-72
2023/05/03 10:55:34;;;;;;;6.50;2.80;;;17.40;90.50;;;;;;4909361;29;20024;-72
2023/05/03 10:58:02;;;;;;;13.10;3.25;;;17.50;91.10;;;;;;4894191;29;20040;-76
2023/05/03 11:00:31;;;;;;;9.43;3.20;;;17.30;90.70;;;;;;4914613;29;20021;-76
2023/05/03 11:03:08;;;;;;;8.88;2.63;;;17.40;91.40;;;;;;4912032;29;20046;-75
2023/05/03 11:05:36;;;;;;;7.97;3.08;;;17.20;91.10;;;;;;4916443;29;20492;-74
2023/05/03 11:08:08;;;;;;;6.47;3.17;;;17.30;90.90;;;;;;4910616;29;20060;-73
2023/05/03 11:10:34;;;;;;;5.80;2.65;;;17.30;91.40;;;;;;4914640;29;20024;-75
2023/05/03 11:13:00;;;;;;;13.10;3.15;;;17.30;90.80;;;;;;4915276;29;20043;-74
2023/05/03 11:15:26;;;;;;;5.72;2.90;;;17.40;90.70;;;;;;4913544;29;20066;-75
2023/05/03 11:17:52;;;;;;;11.95;3.58;;;17.50;91.10;;;;;;4897435;29;20051;-73
2023/05/03 11:20:18;;;;;;;5.05;2.67;;;17.70;91.20;;;;;;4916386;29;20032;-76
2023/05/03 11:22:45;;;;;;;6.00;3.10;;;17.40;90.90;;;;;;4914970;29;20083;-74
2023/05/03 11:25:11;;;;;;;7.55;3.10;;;17.40;90.90;;;;;;4915654;29;20510;-73
2023/05/03 11:27:39;;;;;;;6.35;3.08;;;17.70;91.20;;;;;;4903191;29;20451;-73
2023/05/03 11:30:07;;;;;;;12.95;4.70;;;17.80;90.70;;;;;;4915808;29;20036;-75
2023/05/03 11:32:34;;;;;;;12.88;4.78;;;17.70;91.20;;;;;;4916342;29;20034;-74
2023/05/03 11:35:02;;;;;;;6.13;2.92;;;17.70;91.70;;;;;;4915531;29;20032;-76
2023/05/03 11:37:28;;;;;;;7.40;3.35;;;17.60;90.40;;;;;;4913748;29;20040;-78
2023/05/03 11:39:54;;;;;;;8.23;3.90;;;17.70;91.00;;;;;;4913096;29;20111;-73
2023/05/03 11:42:20;;;;;;;10.52;3.80;;;17.70;90.00;;;;;;4898800;29;20128;-77
2023/05/03 11:44:46;;;;;;;9.23;4.65;;;17.60;90.50;;;;;;4915687;29;20476;-74
2023/05/03 11:47:12;;;;;;;7.20;3.50;;;17.70;90.90;;;;;;4915823;29;20032;-74
2023/05/03 11:49:38;;;;;;;5.95;3.45;;;17.50;90.80;;;;;;4898176;29;20046;-73
2023/05/03 11:52:05;;;;;;;7.35;3.17;;;17.50;90.50;;;;;;4915933;29;20032;-74
2023/05/03 11:54:31;;;;;;;6.40;2.85;;;17.60;90.20;;;;;;4915981;29;20036;-74
2023/05/03 11:56:58;;;;;;;6.55;3.53;;;17.50;90.90;;;;;;4915467;29;20091;-74
2023/05/03 11:59:37;;;;;;;8.27;3.00;;;17.80;90.80;;;;;;4915592;29;20099;-73
2023/05/03 12:02:05;;;;;;;8.52;3.20;;;17.80;90.40;;;;;;4915292;29;20036;-75
2023/05/03 12:04:31;;;;;;;7.82;3.58;;;18.10;91.70;;;;;;4915502;29;20464;-74
2023/05/03 12:06:57;;;;;;;8.65;3.00;;;18.30;91.20;;;;;;4915116;29;20055;-74
2023/05/03 12:09:24;;;;;;;7.00;3.30;;;18.30;90.30;;;;;;4915139;29;20035;-74
2023/05/03 12:11:50;;;;;;;6.53;3.42;;;18.50;91.60;;;;;;4915348;29;20047;-75
2023/05/03 12:14:16;;;;;;;5.85;3.15;;;18.40;90.70;;;;;;4897890;29;20039;-72
2023/05/03 12:16:51;;;;;;;21.08;4.25;;;18.50;90.50;;;;;;4915560;29;20032;-72
2023/05/03 12:19:29;;;;;;;7.93;2.85;;;18.60;92.40;;;;;;4913370;29;20043;-72
2023/05/03 12:21:56;;;;;;;6.82;3.03;;;18.70;91.30;;;;;;4896041;29;20042;-74
2023/05/03 12:24:22;;;;;;;5.35;2.75;;;18.80;90.20;;;;;;4915487;29;20032;-72
2023/05/03 12:26:48;;;;;;;5.90;2.97;;;18.90;89.20;;;;;;4915045;29;20495;-73
2023/05/03 12:29:15;;;;;;;7.63;3.45;;;18.90;87.90;;;;;;4920899;29;20242;-74
2023/05/03 12:31:41;;;;;;;12.00;3.53;;;19.00;90.30;;;;;;4910519;29;20087;-73
2023/05/03 12:34:07;;;;;;;5.75;2.90;;;18.90;89.30;;;;;;4905264;29;20477;-73
2023/05/03 12:36:33;;;;;;;6.53;2.95;;;18.90;87.60;;;;;;4915408;29;20449;-73
2023/05/03 12:39:03;;;;;;;8.27;2.72;;;18.80;88.70;;;;;;4910122;29;20114;-73
2023/05/03 12:41:30;;;;;;;4.07;2.50;;;18.80;87.40;;;;;;4914887;29;20051;-74